createdAt,value
2023-02-11T00:03:00.572Z,35.40
2023-02-11T00:08:02.008Z,36.10
2023-02-11T00:13:03.482Z,35.40
2023-02-11T00:18:04.878Z,35.40
2023-02-11T00:23:06.336Z,35.40
2023-02-11T00:28:07.740Z,35.30
2023-02-11T00:33:09.179Z,35.30
2023-02-11T00:38:10.574Z,35.30
2023-02-11T00:43:11.989Z,35.30
2023-02-11T00:48:13.416Z,35.30
2023-02-11T00:53:14.822Z,35.30
2023-02-11T00:58:16.237Z,35.30
2023-02-11T01:03:17.648Z,35.30
2023-02-11T01:08:19.090Z,35.20
2023-02-11T01:13:20.513Z,35.20
2023-02-11T01:18:21.944Z,35.20
2023-02-11T01:23:23.346Z,35.80
2023-02-11T01:28:24.865Z,35.20
2023-02-11T01:33:26.352Z,35.20
2023-02-11T01:38:27.759Z,35.20
2023-02-11T01:43:29.188Z,35.20
2023-02-11T01:48:30.613Z,35.20
2023-02-11T01:53:32.036Z,35.20
2023-02-11T01:58:33.451Z,35.20
2023-02-11T02:03:34.893Z,35.20
2023-02-11T02:08:36.340Z,35.20
2023-02-11T02:13:37.778Z,35.20
2023-02-11T02:18:39.189Z,35.20
2023-02-11T02:23:40.614Z,35.20
2023-02-11T02:28:42.040Z,35.20
2023-02-11T02:33:43.448Z,35.10
2023-02-11T02:38:44.850Z,35.10
2023-02-11T02:43:46.275Z,35.00
2023-02-11T02:48:47.740Z,35.10
2023-02-11T02:53:49.146Z,35.00
2023-02-11T02:58:50.553Z,35.10
2023-02-11T03:03:51.985Z,35.70
2023-02-11T03:08:53.427Z,35.00
2023-02-11T03:13:54.829Z,35.00
2023-02-11T03:18:56.251Z,35.00
2023-02-11T03:23:57.662Z,35.00
2023-02-11T03:28:59.076Z,35.00
2023-02-11T03:34:00.548Z,35.00
2023-02-11T03:39:01.947Z,35.00
2023-02-11T03:44:03.347Z,35.00
2023-02-11T03:49:04.758Z,35.00
2023-02-11T03:54:06.812Z,35.00
2023-02-11T03:59:08.225Z,34.90
2023-02-11T04:04:09.621Z,34.90
2023-02-11T04:09:11.033Z,35.00
2023-02-11T04:14:12.458Z,34.90
2023-02-11T04:19:13.868Z,35.00
2023-02-11T04:24:15.269Z,35.00
2023-02-11T04:29:16.698Z,35.00
2023-02-11T04:34:18.107Z,35.00
2023-02-11T04:39:19.522Z,35.00
2023-02-11T04:44:20.938Z,34.90
2023-02-11T04:49:22.368Z,34.90
2023-02-11T04:54:23.778Z,35.00
2023-02-11T04:59:25.184Z,35.60
2023-02-11T05:04:26.625Z,34.90
2023-02-11T05:09:28.110Z,35.10
2023-02-11T05:14:29.506Z,35.00
2023-02-11T05:19:30.906Z,35.00
2023-02-11T05:24:32.350Z,35.00
2023-02-11T05:29:33.807Z,35.00
2023-02-11T05:34:35.234Z,35.00
2023-02-11T05:39:36.640Z,35.00
2023-02-11T05:44:38.070Z,35.00
2023-02-11T05:49:39.491Z,35.00
2023-02-11T05:54:40.892Z,35.00
2023-02-11T05:59:42.283Z,35.00
2023-02-11T06:04:43.707Z,35.00
2023-02-11T06:09:45.122Z,35.00
2023-02-11T06:14:46.561Z,34.90
2023-02-11T06:19:47.998Z,34.90
2023-02-11T06:25:00.812Z,34.90
2023-02-11T06:30:03.108Z,34.90
2023-02-11T06:35:04.607Z,34.90
2023-02-11T06:40:06.040Z,34.90
2023-02-11T06:45:07.492Z,34.90
2023-02-11T06:50:08.894Z,34.90
2023-02-11T06:55:10.338Z,34.90
2023-02-11T07:00:11.736Z,34.80
2023-02-11T07:05:13.148Z,34.90
2023-02-11T07:10:14.602Z,34.90
2023-02-11T07:15:16.086Z,34.90
2023-02-11T07:20:17.497Z,34.90
2023-02-11T07:25:18.898Z,34.90
2023-02-11T07:30:20.302Z,34.90
2023-02-11T07:35:21.740Z,34.90
2023-02-11T07:40:23.165Z,34.90
2023-02-11T07:45:24.695Z,35.00
2023-02-11T07:50:26.093Z,34.90
2023-02-11T07:55:27.503Z,34.90
2023-02-11T08:00:28.951Z,35.00
2023-02-11T08:05:30.395Z,34.90
2023-02-11T08:10:31.800Z,34.80
2023-02-11T08:15:33.308Z,34.90
2023-02-11T08:20:34.716Z,34.90
2023-02-11T08:25:36.139Z,34.90
2023-02-11T08:30:37.606Z,35.00
2023-02-11T08:35:39.041Z,34.90
2023-02-11T08:40:40.493Z,35.00
2023-02-11T08:45:42.035Z,35.00
2023-02-11T08:50:43.530Z,35.00
2023-02-11T08:55:44.988Z,34.90
2023-02-11T09:00:46.440Z,35.00
2023-02-11T09:05:47.879Z,34.90
2023-02-11T09:10:49.674Z,34.90
2023-02-11T09:15:51.264Z,34.90
2023-02-11T09:20:52.872Z,35.00
2023-02-11T09:25:54.429Z,35.00
2023-02-11T09:30:56.028Z,35.00
2023-02-11T09:35:57.546Z,34.90
2023-02-11T09:40:58.997Z,35.00
2023-02-11T09:46:00.460Z,35.00
2023-02-11T09:51:01.923Z,34.90
2023-02-11T09:56:03.339Z,35.00
2023-02-11T10:01:04.824Z,34.90
2023-02-11T10:06:06.295Z,34.90
2023-02-11T10:11:07.709Z,34.90
2023-02-11T10:16:09.180Z,35.00
2023-02-11T10:21:10.626Z,34.90
2023-02-11T10:26:12.025Z,34.90
2023-02-11T10:31:13.513Z,34.90
2023-02-11T10:36:14.952Z,35.00
2023-02-11T10:41:17.051Z,34.90
2023-02-11T10:46:18.641Z,34.90
2023-02-11T10:51:20.082Z,34.90
2023-02-11T10:56:21.474Z,34.90
2023-02-11T11:01:24.943Z,34.90
2023-02-11T11:06:26.478Z,34.90
2023-02-11T11:11:27.897Z,35.00
2023-02-11T11:16:29.405Z,35.00
2023-02-11T11:21:30.881Z,35.00
2023-02-11T11:26:32.296Z,34.90
2023-02-11T11:31:33.814Z,35.00
2023-02-11T11:36:35.254Z,35.00
2023-02-11T11:41:36.656Z,35.00
2023-02-11T11:46:38.186Z,35.00
2023-02-11T11:51:39.659Z,35.50
2023-02-11T11:56:41.094Z,35.00
2023-02-11T12:01:42.592Z,35.00
2023-02-11T12:06:44.077Z,35.00
2023-02-11T12:11:45.637Z,35.00
2023-02-11T12:16:47.127Z,35.00
2023-02-11T12:21:48.572Z,35.00
2023-02-11T12:26:49.990Z,35.00
2023-02-11T12:31:51.459Z,35.00
2023-02-11T12:36:52.939Z,35.00
2023-02-11T12:41:54.353Z,35.00
2023-02-11T12:46:55.792Z,35.00
2023-02-11T12:51:57.202Z,35.00
2023-02-11T12:56:58.633Z,35.00
2023-02-11T13:02:00.155Z,35.00
2023-02-11T13:07:01.646Z,35.00
2023-02-11T13:12:03.092Z,35.60
2023-02-11T13:17:04.504Z,35.00
2023-02-11T13:22:05.920Z,35.00
2023-02-11T13:27:07.326Z,35.00
2023-02-11T13:32:08.826Z,35.00
2023-02-11T13:37:10.251Z,35.00
2023-02-11T13:42:11.652Z,35.00
2023-02-11T13:47:13.067Z,35.00
2023-02-11T13:52:14.531Z,35.00
2023-02-11T13:57:15.922Z,35.00
2023-02-11T14:02:17.342Z,35.00
2023-02-11T14:07:18.786Z,35.00
2023-02-11T14:12:20.178Z,35.00
2023-02-11T14:17:21.631Z,35.00
2023-02-11T14:22:23.076Z,35.20
2023-02-11T14:27:24.618Z,35.10
2023-02-11T14:32:26.081Z,34.90
2023-02-11T14:37:27.600Z,34.80
2023-02-11T14:42:30.445Z,34.80
2023-02-11T14:47:31.973Z,35.10
2023-02-11T14:52:33.380Z,35.10
2023-02-11T14:57:34.800Z,35.20
2023-02-11T15:02:36.266Z,35.60
2023-02-11T15:07:37.736Z,36.40
2023-02-11T15:12:39.148Z,36.60
2023-02-11T15:17:40.558Z,36.70
2023-02-11T15:22:41.974Z,36.90
2023-02-11T15:27:43.385Z,37.20
2023-02-11T15:32:44.809Z,37.30
2023-02-11T15:37:47.765Z,37.30
2023-02-11T15:42:53.284Z,37.40
2023-02-11T15:47:55.278Z,37.40
2023-02-11T15:52:56.671Z,37.50
2023-02-11T15:57:58.077Z,37.60
2023-02-11T16:02:59.506Z,37.60
2023-02-11T16:08:00.945Z,37.70
2023-02-11T16:13:02.609Z,37.80
2023-02-11T16:18:04.021Z,37.80
2023-02-11T16:23:05.439Z,37.90
2023-02-11T16:28:06.876Z,37.90
2023-02-11T16:33:08.281Z,37.90
2023-02-11T16:38:09.704Z,38.60
2023-02-11T16:43:11.208Z,38.00
2023-02-11T16:48:12.771Z,38.00
2023-02-11T16:53:14.183Z,38.10
2023-02-11T16:58:15.593Z,38.00
2023-02-11T17:03:17.099Z,38.00
2023-02-11T17:08:18.498Z,37.60
2023-02-11T17:13:19.911Z,37.40
2023-02-11T17:18:21.344Z,37.20
2023-02-11T17:23:22.745Z,37.40
2023-02-11T17:28:24.212Z,37.90
2023-02-11T17:33:25.633Z,38.00
2023-02-11T17:38:27.040Z,38.20
2023-02-11T17:43:28.488Z,38.30
2023-02-11T17:48:29.900Z,38.30
2023-02-11T17:53:31.310Z,38.30
2023-02-11T17:58:32.702Z,38.40
2023-02-11T18:03:34.181Z,38.40
2023-02-11T18:08:35.655Z,38.50
2023-02-11T18:13:37.054Z,38.60
2023-02-11T18:18:38.471Z,38.70
2023-02-11T18:23:39.867Z,38.70
2023-02-11T18:28:43.285Z,38.70
2023-02-11T18:33:46.779Z,38.70
2023-02-11T18:38:48.257Z,38.80
2023-02-11T18:43:49.685Z,38.80
2023-02-11T18:48:51.088Z,38.90
2023-02-11T18:53:52.506Z,38.90
2023-02-11T18:58:53.930Z,38.40
2023-02-11T19:03:55.405Z,38.20
2023-02-11T19:08:59.345Z,38.20
2023-02-11T19:14:01.262Z,38.10
2023-02-11T19:19:02.672Z,37.90
2023-02-11T19:24:04.079Z,37.80
2023-02-11T19:29:05.499Z,37.60
2023-02-11T19:34:06.918Z,38.10
2023-02-11T19:39:08.326Z,38.30
2023-02-11T19:44:09.762Z,38.50
2023-02-11T19:49:11.168Z,38.70
2023-02-11T19:54:12.585Z,38.80
2023-02-11T19:59:14.046Z,38.90
2023-02-11T20:04:15.472Z,39.00
2023-02-11T20:09:17.805Z,39.10
2023-02-11T20:14:19.401Z,39.10
2023-02-11T20:19:20.911Z,39.20
2023-02-11T20:24:22.334Z,39.20
2023-02-11T20:29:23.759Z,39.30
2023-02-11T20:34:25.792Z,39.20
2023-02-11T20:39:27.190Z,39.30
2023-02-11T20:44:28.612Z,39.90
2023-02-11T20:49:30.033Z,38.70
2023-02-11T20:54:31.450Z,38.00
2023-02-11T20:59:32.882Z,38.40
2023-02-11T21:04:34.317Z,38.10
2023-02-11T21:09:35.735Z,38.20
2023-02-11T21:14:37.133Z,38.20
2023-02-11T21:19:38.554Z,38.10
2023-02-11T21:24:39.964Z,38.50
2023-02-11T21:29:53.470Z,38.60
2023-02-11T21:34:55.758Z,38.50
2023-02-11T21:39:57.171Z,38.40
2023-02-11T21:44:58.651Z,38.40
2023-02-11T21:50:00.159Z,38.30
2023-02-11T21:55:01.561Z,38.00
2023-02-11T22:00:03.094Z,38.00
2023-02-11T22:05:04.670Z,37.80
2023-02-11T22:10:06.272Z,37.60
2023-02-11T22:15:07.766Z,37.70
2023-02-11T22:20:09.191Z,38.20
2023-02-11T22:25:10.607Z,38.40
2023-02-11T22:30:12.016Z,38.60
2023-02-11T22:35:13.416Z,38.60
2023-02-11T22:40:14.859Z,38.50
2023-02-11T22:45:16.266Z,38.80
2023-02-11T22:50:17.738Z,39.00
2023-02-11T22:55:19.162Z,38.70
2023-02-11T23:00:20.584Z,38.60
2023-02-11T23:05:22.012Z,38.50
2023-02-11T23:10:23.444Z,38.30
2023-02-11T23:15:24.874Z,38.30
2023-02-11T23:20:26.293Z,38.80
2023-02-11T23:25:27.736Z,39.00
2023-02-11T23:30:29.136Z,39.40
2023-02-11T23:35:30.558Z,39.70
2023-02-11T23:40:31.978Z,39.70
2023-02-11T23:45:33.477Z,39.80
2023-02-11T23:50:34.907Z,39.70
2023-02-11T23:55:36.317Z,39.90
